ESCF/LPI METAR and TAF weather

Enter ICAO airport designator
Station Type Date Time Source
ESCF METAR 2021/09/20 04:20 UTC NOAA

ESCF 200420Z 02007KT 9999 OVC049 08/03 Q1025


Station Type Date Time Source
ESCF Decoded METAR 2021/09/20 04:20 UTC NOAA

Linkoping / Malmen, Sweden (ESCF) 58-24N 015-31E 117M
Sep 20, 2021 - 12:20 AM EDT / 2021.09.20 0420 UTC
Wind: from the NNE (020 degrees) at 8 MPH (7 KT):0
Visibility: greater than 7 mile(s):0
Sky conditions: overcast
Temperature: 46 F (8 C)
Dew Point: 37 F (3 C)
Relative Humidity: 70%
Pressure (altimeter): 30.27 in. Hg (1025 hPa)
ob: ESCF 200420Z 02007KT 9999 OVC049 08/03 Q1025
cycle: 4

Station Type Date Time Source
ESCF TAF UTC NOAA

Error!

Example: see airport list